Private Wetterstation Nrnberg - Katzwang
Wetterdaten: Februar 2013
Datum Temp. A. Feuchte A. Luftdruck Regen Wind Richtung Taupunkt Windchill Windben
01.02.2013 5,6 C 84 % 997 hPa 0,0 l/m 1,0 km/h W-NW 3,1 C 5,6 C 2,0 km/h
02.02.2013 1,4 C 82 % 1001 hPa 3,6 l/m 1,5 km/h W-NW -1,3 C 1,4 C 2,5 km/h
03.02.2013 1,7 C 82 % 1012 hPa 0,0 l/m 5,0 km/h W-NW -1,1 C 0,1 C 6,0 km/h
04.02.2013 3,9 C 85 % 1008 hPa 0,0 l/m 5,4 km/h W-NW 1,6 C 3,3 C 6,4 km/h
05.02.2013 2,0 C 84 % 999 hPa 0,0 l/m 1,0 km/h W-NW -0,4 C 2,0 C 2,0 km/h
06.02.2013 0,8 C 83 % 997 hPa 0,0 l/m 4,8 km/h NO -1,7 C -0,9 C 8,0 km/h
07.02.2013 0,0 C 83 % 1006 hPa 0,0 l/m 1,2 km/h W-NW -2,6 C 0,0 C 2,2 km/h
08.02.2013 0,2 C 82 % 1008 hPa 1,5 l/m 0,0 km/h W-NW -2,5 C 0,2 C 1,0 km/h
09.02.2013 -2,4 C 82 % 1014 hPa 2,5 l/m 0,0 km/h W-NW -5,0 C -2,4 C 1,0 km/h
10.02.2013 -4,1 C 81 % 1009 hPa 0,0 l/m 0,0 km/h O-NO -6,9 C -4,1 C 1,0 km/h
11.02.2013 -3,0 C 75 % 1001 hPa 0,0 l/m 9,6 km/h O -6,9 C -6,3 C 10,6 km/h
12.02.2013 -2,3 C 81 % 1007 hPa 2,0 l/m 1,4 km/h N-NO -5,2 C -2,3 C 2,4 km/h
13.02.2013 -1,8 C 81 % 1020 hPa 0,0 l/m 0,0 km/h N-NO -4,7 C -1,8 C 1,0 km/h
14.02.2013 -1,5 C 77 % 1017 hPa 1,0 l/m 0,5 km/h NO -5,2 C -1,5 C 1,5 km/h
15.02.2013 -0,4 C 80 % 1016 hPa 0,0 l/m 0,0 km/h NO -3,5 C -0,4 C 1,0 km/h
16.02.2013 1,9 C 85 % 1020 hPa 2,1 l/m 0,0 km/h W-NW -0,4 C 1,9 C 1,0 km/h
17.02.2013 2,0 C 85 % 1019 hPa 0,5 l/m 0,0 km/h N-NO -0,3 C 2,0 C 1,0 km/h
18.02.2013 1,1 C 78 % 1017 hPa 0,0 l/m 0,0 km/h N-NO -2,3 C 1,1 C 1,0 km/h
19.02.2013 0,6 C 84 % 1012 hPa 1,0 l/m 0,0 km/h W-NW -1,8 C 0,6 C 1,0 km/h
20.02.2013 -1,5 C 78 % 1017 hPa 1,0 l/m 0,0 km/h N-NO -4,8 C -1,5 C 1,0 km/h
21.02.2013 -3,5 C 76 % 1014 hPa 0,0 l/m 10,6 km/h NO -7,1 C -7,6 C 11,6 km/h
22.02.2013 -4,4 C 76 % 1008 hPa 0,0 l/m 14,9 km/h N-NO -8,0 C -11,5 C 16,7 km/h
23.02.2013 -3,1 C 82 % 1006 hPa 0,0 l/m 2,6 km/h N-NO -5,7 C -4,0 C 3,6 km/h
24.02.2013 -0,8 C 80 % 1009 hPa 1,6 l/m 0,0 km/h W-NW -3,8 C -0,8 C 1,0 km/h
25.02.2013 0,7 C 84 % 1017 hPa 0,5 l/m 0,0 km/h NO -1,6 C 0,7 C 1,0 km/h
26.02.2013 2,3 C 84 % 1022 hPa 6,7 l/m 4,1 km/h NO -0,2 C 2,2 C 5,1 km/h
27.02.2013 1,3 C 84 % 1025 hPa 0,0 l/m 3,6 km/h NO -1,2 C -0,3 C 4,6 km/h
28.02.2013 2,1 C 82 % 1021 hPa 0,0 l/m 1,9 km/h O -0,6 C 2,1 C 2,9 km/h
Min-Datum 22.02.13 21.02.13 02.02.13 12 Tage 01.02.13 - 11.02.13 11.02.13 01.02.13
Min-Zeit 01:20 16:20 00:00 - 03:30 - 07:20 11:30 03:30
Minimum -7,2 C 60 % 988 hPa - 0,0 km/h - -9,8 C -17,6 C 1,0 km/h
Max-Datum 05.02.13 01.02.13 27.02.13 26.02.13 11.02.13 - 01.02.13 05.02.13 05.02.13
Max-Zeit 12:40 19:30 08:30 12:10 11:30 - 23:20 12:00 12:50
Maximum 7,9 C 86 % 1026 hPa 6,7 l/m 36,3 km/h
O
- 4,1 C 7,6 C 63,9 km/h
W-NW
Durchschnitt -0,0 C 81 % 1011 hPa #24,1 l/m 2,5 km/h NO -2,9 C -0,8 C 3,6 km/h

Durchschnitt Minimum Temp.-2,2 C
Durchschnitt Maximum Temp.2,8 C